createdAt,value
2022-08-10T00:00:09.526Z,69.15
2022-08-10T00:02:08.650Z,68.92
2022-08-10T00:04:08.761Z,69.32
2022-08-10T00:07:24.696Z,113.03
2022-08-10T00:09:24.760Z,94.96
2022-08-10T00:11:24.886Z,88.52
2022-08-10T00:13:25.002Z,83.19
2022-08-10T00:15:52.701Z,80.42
2022-08-10T00:17:26.223Z,77.82
2022-08-10T00:19:25.307Z,76.14
2022-08-10T00:21:27.169Z,75.05
2022-08-10T00:23:25.527Z,74.13
2022-08-10T00:25:25.605Z,73.61
2022-08-10T00:28:01.292Z,72.98
2022-08-10T00:29:26.873Z,72.91
2022-08-10T00:31:25.958Z,72.10
2022-08-10T00:33:26.071Z,72.16
2022-08-10T00:35:26.180Z,71.55
2022-08-10T00:37:26.271Z,71.43
2022-08-10T00:39:26.467Z,71.07
2022-08-10T00:41:26.470Z,71.13
2022-08-10T00:43:26.550Z,71.01
2022-08-10T00:45:26.672Z,71.01
2022-08-10T00:47:36.996Z,70.89
2022-08-10T00:49:27.855Z,71.07
2022-08-10T00:51:47.933Z,71.01
2022-08-10T00:53:28.073Z,71.25
2022-08-10T00:55:27.264Z,70.89
2022-08-10T00:57:27.361Z,70.89
2022-08-10T00:59:27.432Z,71.13
2022-08-10T01:02:07.329Z,71.25
2022-08-10T01:04:39.767Z,71.37
2022-08-10T01:05:28.867Z,71.01
2022-08-10T01:07:28.066Z,71.01
2022-08-10T01:09:28.110Z,71.19
2022-08-10T01:12:37.353Z,71.49
2022-08-10T01:13:29.319Z,71.37
2022-08-10T01:15:28.454Z,71.25
2022-08-10T01:17:50.935Z,71.49
2022-08-10T01:19:29.639Z,71.67
2022-08-10T01:21:28.779Z,71.49
2022-08-10T01:23:28.865Z,71.55
2022-08-10T01:25:28.964Z,71.80
2022-08-10T01:27:29.082Z,72.04
2022-08-10T01:29:29.207Z,72.04
2022-08-10T01:31:29.278Z,72.10
2022-08-10T01:33:58.088Z,72.10
2022-08-10T01:35:30.591Z,72.35
2022-08-10T01:37:29.740Z,72.60
2022-08-10T01:39:29.902Z,72.79
2022-08-10T01:41:30.016Z,72.79
2022-08-10T01:43:31.868Z,72.66
2022-08-10T01:45:30.310Z,73.36
2022-08-10T01:47:31.410Z,73.04
2022-08-10T01:49:30.549Z,73.23
2022-08-10T01:51:30.682Z,73.10
2022-08-10T01:53:40.951Z,73.36
2022-08-10T01:55:31.914Z,73.42
2022-08-10T01:57:31.002Z,73.74
2022-08-10T01:59:31.106Z,73.81
2022-08-10T02:01:31.303Z,73.81
2022-08-10T02:03:31.294Z,74.33
2022-08-10T02:05:31.417Z,73.74
2022-08-10T02:07:31.510Z,74.39
2022-08-10T02:09:31.867Z,74.39
2022-08-10T02:12:05.844Z,74.39
2022-08-10T02:13:32.895Z,74.65
2022-08-10T02:15:31.968Z,74.72
2022-08-10T02:17:57.545Z,74.65
2022-08-10T02:19:33.184Z,75.12
2022-08-10T02:21:32.378Z,74.85
2022-08-10T02:23:32.445Z,74.85
2022-08-10T02:25:42.123Z,75.52
2022-08-10T02:27:33.642Z,75.25
2022-08-10T02:29:32.770Z,75.39
2022-08-10T02:31:32.942Z,75.46
2022-08-10T02:33:33.027Z,75.66
2022-08-10T02:35:54.652Z,76.07
2022-08-10T02:37:34.336Z,76.07
2022-08-10T02:39:33.412Z,76.14
2022-08-10T02:45:15.217Z,76.27
2022-08-10T02:45:19.468Z,76.27
2022-08-10T02:45:35.058Z,76.55
2022-08-10T02:47:51.105Z,76.62
2022-08-10T02:49:34.898Z,76.48
2022-08-10T02:52:07.290Z,76.69
2022-08-10T02:53:55.473Z,76.48
2022-08-10T02:55:35.249Z,76.69
2022-08-10T02:57:34.378Z,76.62
2022-08-10T02:59:38.565Z,76.83
2022-08-10T03:01:35.652Z,76.76
2022-08-10T03:03:34.698Z,76.97
2022-08-10T03:05:34.898Z,76.97
2022-08-10T03:07:43.744Z,77.04
2022-08-10T03:09:36.051Z,77.04
2022-08-10T03:12:34.955Z,77.25
2022-08-10T03:13:36.284Z,77.04
2022-08-10T03:15:35.354Z,77.04
2022-08-10T03:17:35.466Z,77.18
2022-08-10T03:20:35.110Z,77.32
2022-08-10T03:21:36.681Z,77.39
2022-08-10T03:23:35.748Z,77.11
2022-08-10T03:25:35.874Z,77.46
2022-08-10T03:27:35.962Z,77.46
2022-08-10T03:30:29.410Z,77.32
2022-08-10T03:31:40.277Z,77.46
2022-08-10T03:33:36.289Z,77.75
2022-08-10T03:35:36.391Z,77.61
2022-08-10T03:37:36.487Z,77.54
2022-08-10T03:39:36.624Z,77.82
2022-08-10T03:41:36.698Z,77.82
2022-08-10T03:43:36.801Z,77.75
2022-08-10T03:45:54.403Z,77.54
2022-08-10T03:47:37.990Z,77.68
2022-08-10T03:49:37.132Z,78.25
2022-08-10T03:51:37.229Z,78.04
2022-08-10T03:54:03.176Z,78.18
2022-08-10T03:56:28.815Z,78.04
2022-08-10T03:57:41.789Z,78.25
2022-08-10T03:59:38.673Z,78.33
2022-08-10T04:02:42.211Z,78.04
2022-08-10T04:03:38.937Z,78.11
2022-08-10T04:05:38.922Z,78.40
2022-08-10T04:07:38.237Z,78.62
2022-08-10T04:09:53.680Z,78.40
2022-08-10T04:11:40.603Z,78.33
2022-08-10T04:13:38.577Z,78.47
2022-08-10T04:16:55.045Z,127.17
2022-08-10T04:18:55.178Z,106.26
2022-08-10T04:20:55.273Z,96.70
2022-08-10T04:22:55.450Z,93.31
2022-08-10T04:24:55.560Z,89.74
2022-08-10T04:26:55.713Z,87.51
2022-08-10T04:28:55.858Z,85.73
2022-08-10T04:30:55.971Z,84.44
2022-08-10T04:32:56.106Z,83.36
2022-08-10T04:34:56.210Z,82.62
2022-08-10T04:36:56.318Z,82.22
2022-08-10T04:38:56.479Z,81.50
2022-08-10T04:40:56.581Z,81.04
2022-08-10T04:43:01.310Z,80.88
2022-08-10T04:44:57.841Z,80.65
2022-08-10T04:46:58.222Z,80.04
2022-08-10T04:49:01.462Z,79.96
2022-08-10T04:50:57.277Z,79.66
2022-08-10T04:52:57.401Z,79.51
2022-08-10T04:54:57.558Z,79.28
2022-08-10T04:56:57.655Z,79.14
2022-08-10T04:58:57.817Z,79.28
2022-08-10T05:00:57.928Z,79.21
2022-08-10T05:02:58.025Z,78.91
2022-08-10T05:04:58.199Z,79.14
2022-08-10T05:06:58.306Z,78.55
2022-08-10T05:08:58.425Z,78.40
2022-08-10T05:10:58.570Z,78.18
2022-08-10T05:12:58.671Z,78.04
2022-08-10T05:14:58.795Z,78.25
2022-08-10T05:16:58.922Z,77.97
2022-08-10T05:18:59.006Z,78.18
2022-08-10T05:20:59.157Z,77.89
2022-08-10T05:22:59.311Z,77.54
2022-08-10T05:24:59.446Z,77.61
2022-08-10T05:27:09.436Z,77.32
2022-08-10T05:29:00.714Z,77.54
2022-08-10T05:30:59.866Z,77.32
2022-08-10T05:33:02.812Z,77.32
2022-08-10T05:35:03.005Z,77.04
2022-08-10T05:37:00.230Z,77.04
2022-08-10T05:39:00.348Z,76.97
2022-08-10T05:41:00.497Z,77.04
2022-08-10T05:43:00.620Z,76.69
2022-08-10T05:45:00.740Z,76.76
2022-08-10T05:47:00.900Z,76.62
2022-08-10T05:49:01.977Z,76.55
2022-08-10T05:51:01.129Z,76.34
2022-08-10T05:53:58.722Z,76.34
2022-08-10T05:55:03.050Z,76.00
2022-08-10T05:57:01.511Z,76.34
2022-08-10T05:59:01.659Z,75.79
2022-08-10T06:01:01.880Z,75.93
2022-08-10T06:03:01.884Z,75.73
2022-08-10T06:05:02.003Z,75.79
2022-08-10T06:07:02.130Z,75.73
2022-08-10T06:09:02.267Z,75.52
2022-08-10T06:12:24.385Z,75.46
2022-08-10T06:13:03.966Z,75.25
2022-08-10T06:15:05.524Z,75.05
2022-08-10T06:17:03.853Z,74.92
2022-08-10T06:19:02.987Z,74.92
2022-08-10T06:21:03.220Z,74.65
2022-08-10T06:23:03.225Z,74.52
2022-08-10T06:27:04.430Z,73.61
2022-08-10T06:29:04.309Z,73.42
2022-08-10T06:31:03.621Z,71.92
2022-08-10T06:33:03.716Z,70.07
2022-08-10T06:35:04.064Z,67.87
2022-08-10T06:37:03.979Z,65.80
2022-08-10T06:39:29.990Z,63.53
2022-08-10T06:41:05.242Z,61.31
2022-08-10T06:43:04.545Z,59.04
2022-08-10T06:45:04.487Z,56.92
2022-08-10T06:47:04.568Z,54.85
2022-08-10T06:49:04.694Z,52.76
2022-08-10T06:51:04.835Z,50.88
2022-08-10T06:53:04.939Z,49.45
2022-08-10T06:55:05.157Z,47.99
2022-08-10T06:57:20.351Z,46.87
2022-08-10T06:59:06.290Z,45.56
2022-08-10T07:01:05.520Z,44.26
2022-08-10T07:03:08.025Z,43.31
2022-08-10T07:05:05.666Z,42.06
2022-08-10T07:07:05.810Z,41.16
2022-08-10T07:09:05.945Z,40.57
2022-08-10T07:11:10.040Z,39.73
2022-08-10T07:13:07.201Z,38.99
2022-08-10T07:15:06.280Z,38.35
2022-08-10T07:17:06.460Z,37.94
2022-08-10T07:19:06.509Z,37.34
2022-08-10T07:21:06.717Z,37.01
2022-08-10T07:23:57.855Z,36.72
2022-08-10T07:25:07.915Z,36.37
2022-08-10T07:27:07.033Z,36.22
2022-08-10T07:29:07.138Z,36.12
2022-08-10T07:31:36.048Z,36.00
2022-08-10T07:33:08.423Z,35.97
2022-08-10T07:35:07.524Z,35.91
2022-08-10T07:37:07.666Z,35.91
2022-08-10T07:39:07.833Z,35.91
2022-08-10T07:41:07.831Z,36.19
2022-08-10T07:43:08.109Z,36.19
2022-08-10T07:45:08.130Z,36.09
2022-08-10T07:47:08.259Z,36.22
2022-08-10T07:49:15.508Z,36.66
2022-08-10T07:51:09.695Z,36.69
2022-08-10T07:53:08.712Z,36.56
2022-08-10T07:55:08.814Z,36.91
2022-08-10T07:57:09.179Z,36.72
2022-08-10T07:59:09.130Z,36.78
2022-08-10T08:01:09.159Z,36.69
2022-08-10T08:03:09.319Z,36.88
2022-08-10T08:05:09.414Z,36.95
2022-08-10T08:07:09.607Z,37.11
2022-08-10T08:09:09.695Z,37.08
2022-08-10T08:11:09.841Z,37.17
2022-08-10T08:13:10.989Z,37.21
2022-08-10T08:16:15.749Z,37.21
2022-08-10T08:17:11.283Z,37.24
2022-08-10T08:19:27.080Z,37.37
2022-08-10T08:24:04.465Z,37.31
2022-08-10T08:24:04.648Z,37.44
2022-08-10T08:25:14.593Z,37.14
2022-08-10T08:27:10.926Z,37.27
2022-08-10T08:29:10.998Z,37.17
2022-08-10T08:31:11.593Z,37.14
2022-08-10T08:33:11.271Z,37.27
2022-08-10T08:35:12.349Z,37.21
2022-08-10T08:37:11.751Z,37.27
2022-08-10T08:39:11.595Z,37.11
2022-08-10T08:41:11.738Z,36.78
2022-08-10T08:43:11.787Z,36.82
2022-08-10T08:45:11.991Z,36.66
2022-08-10T08:48:01.979Z,36.28
2022-08-10T08:49:13.165Z,36.06
2022-08-10T08:51:13.390Z,35.88
2022-08-10T08:53:21.861Z,35.88
2022-08-10T08:55:56.082Z,35.70
2022-08-10T08:57:13.701Z,35.52
2022-08-10T08:59:13.938Z,35.19
2022-08-10T09:01:12.951Z,35.19
2022-08-10T09:03:12.997Z,35.02
2022-08-10T09:05:13.213Z,35.02
2022-08-10T09:07:39.269Z,34.81
2022-08-10T09:09:14.880Z,34.81
2022-08-10T09:11:13.548Z,34.59
2022-08-10T09:13:13.697Z,34.33
2022-08-10T09:15:40.931Z,34.17
2022-08-10T09:17:14.884Z,33.92
2022-08-10T09:19:19.611Z,34.00
2022-08-10T09:21:15.211Z,33.70
2022-08-10T09:23:15.246Z,33.62
2022-08-10T09:25:14.406Z,33.51
2022-08-10T09:27:14.519Z,33.44
2022-08-10T09:29:14.798Z,33.54
2022-08-10T09:31:23.286Z,33.62
2022-08-10T09:36:21.926Z,33.76
2022-08-10T09:36:23.687Z,33.84
2022-08-10T09:37:16.128Z,33.49
2022-08-10T09:40:56.669Z,33.36
2022-08-10T09:41:16.362Z,33.04
2022-08-10T09:43:25.406Z,33.02
2022-08-10T09:45:16.552Z,32.81
2022-08-10T09:47:15.681Z,32.38
2022-08-10T09:49:18.158Z,32.31
2022-08-10T09:51:42.156Z,31.99
2022-08-10T09:53:16.974Z,31.75
2022-08-10T09:55:16.076Z,31.51
2022-08-10T09:57:55.177Z,31.35
2022-08-10T09:59:56.649Z,31.21
2022-08-10T10:01:58.320Z,31.24
2022-08-10T10:03:19.693Z,31.37
2022-08-10T10:05:16.756Z,31.73
2022-08-10T10:07:16.890Z,31.99
2022-08-10T10:09:16.926Z,31.77
2022-08-10T10:11:17.026Z,31.75
2022-08-10T10:13:17.354Z,32.09
2022-08-10T10:15:25.007Z,32.06
2022-08-10T10:17:18.449Z,32.11
2022-08-10T10:19:17.610Z,32.04
2022-08-10T10:21:54.064Z,31.87
2022-08-10T10:23:18.746Z,31.75
2022-08-10T10:25:20.799Z,31.70
2022-08-10T10:27:17.987Z,31.58
2022-08-10T10:29:57.656Z,31.44
2022-08-10T10:31:19.859Z,31.12
2022-08-10T10:33:18.387Z,31.14
2022-08-10T10:35:18.509Z,31.00
2022-08-10T10:37:18.595Z,31.03
2022-08-10T10:39:23.477Z,30.73
2022-08-10T10:41:19.833Z,30.73
2022-08-10T10:43:18.887Z,30.73
2022-08-10T10:45:19.068Z,30.58
2022-08-10T10:47:19.508Z,30.49
2022-08-10T10:49:19.330Z,30.42
2022-08-10T10:51:19.544Z,30.25
2022-08-10T10:53:19.514Z,30.25
2022-08-10T10:55:19.721Z,30.25
2022-08-10T10:57:19.782Z,30.25
2022-08-10T10:59:54.257Z,30.32
2022-08-10T11:01:21.175Z,30.38
2022-08-10T11:03:20.091Z,30.29
2022-08-10T11:05:20.180Z,30.45
2022-08-10T11:07:22.914Z,30.58
2022-08-10T11:10:03.867Z,30.69
2022-08-10T11:12:00.431Z,30.76
2022-08-10T11:14:26.704Z,30.89
2022-08-10T11:15:21.843Z,31.00
2022-08-10T11:17:20.955Z,30.89
2022-08-10T11:19:21.158Z,30.94
2022-08-10T11:21:21.752Z,31.14
2022-08-10T11:23:22.943Z,31.37
2022-08-10T11:25:25.098Z,31.63
2022-08-10T11:27:22.632Z,31.80
2022-08-10T11:29:28.476Z,32.04
2022-08-10T11:31:22.979Z,32.04
2022-08-10T11:33:30.752Z,32.46
2022-08-10T11:35:23.228Z,32.31
2022-08-10T11:37:22.339Z,32.56
2022-08-10T11:39:22.502Z,32.66
2022-08-10T11:42:07.190Z,32.99
2022-08-10T11:43:25.204Z,33.15
2022-08-10T11:45:37.750Z,33.38
2022-08-10T11:47:34.996Z,33.60
2022-08-10T11:49:23.178Z,33.95
2022-08-10T11:51:26.650Z,34.31
2022-08-10T11:53:24.950Z,34.53
2022-08-10T11:55:23.553Z,34.76
2022-08-10T11:57:23.869Z,34.67
2022-08-10T11:59:23.836Z,34.93
2022-08-10T12:02:57.520Z,60.26
2022-08-10T12:04:52.357Z,52.17
2022-08-10T12:06:55.753Z,48.15
2022-08-10T12:10:02.792Z,45.56
2022-08-10T12:10:52.883Z,43.81
2022-08-10T12:12:52.021Z,42.27
2022-08-10T12:14:52.120Z,41.36
2022-08-10T12:16:52.239Z,40.57
2022-08-10T12:18:52.388Z,40.10
2022-08-10T12:20:52.559Z,40.03
2022-08-10T12:22:52.777Z,40.18
2022-08-10T12:24:52.769Z,40.07
2022-08-10T12:26:52.934Z,40.18
2022-08-10T12:28:53.087Z,40.26
2022-08-10T12:30:53.209Z,39.95
2022-08-10T12:32:53.252Z,40.10
2022-08-10T12:34:53.410Z,39.76
2022-08-10T12:36:53.857Z,40.14
2022-08-10T12:38:53.735Z,40.03
2022-08-10T12:40:53.869Z,40.03
2022-08-10T12:44:04.621Z,40.07
2022-08-10T12:44:55.019Z,40.57
2022-08-10T12:46:54.615Z,40.84
2022-08-10T12:48:54.413Z,41.08
2022-08-10T12:50:54.361Z,41.16
2022-08-10T12:52:54.582Z,41.28
2022-08-10T12:54:54.605Z,41.32
2022-08-10T12:56:54.772Z,41.52
2022-08-10T12:58:58.014Z,41.65
2022-08-10T13:01:15.145Z,41.73
2022-08-10T13:02:56.170Z,41.81
2022-08-10T13:04:55.215Z,41.81
2022-08-10T13:06:55.336Z,41.89
2022-08-10T13:08:55.473Z,41.98
2022-08-10T13:10:55.638Z,42.15
2022-08-10T13:12:55.680Z,42.23
2022-08-10T13:14:55.854Z,42.44
2022-08-10T13:16:56.001Z,42.36
2022-08-10T13:18:56.036Z,42.87
2022-08-10T13:20:56.169Z,42.74
2022-08-10T13:22:56.236Z,43.05
2022-08-10T13:24:56.444Z,43.09
2022-08-10T13:27:25.650Z,43.40
2022-08-10T13:28:57.607Z,43.72
2022-08-10T13:30:56.814Z,43.53
2022-08-10T13:32:56.860Z,43.81
2022-08-10T13:34:56.987Z,44.36
2022-08-10T13:36:57.130Z,44.36
2022-08-10T13:38:57.255Z,44.50
2022-08-10T13:40:57.413Z,44.59
2022-08-10T13:42:57.519Z,44.69
2022-08-10T13:44:57.691Z,45.02
2022-08-10T13:46:57.852Z,44.83
2022-08-10T13:48:57.899Z,44.97
2022-08-10T13:50:58.047Z,45.07
2022-08-10T13:52:58.118Z,45.17
2022-08-10T13:54:58.208Z,45.02
2022-08-10T13:56:58.391Z,45.65
2022-08-10T13:58:58.444Z,45.75
2022-08-10T14:00:58.655Z,45.85
2022-08-10T14:02:58.749Z,46.10
2022-08-10T14:04:58.877Z,46.25
2022-08-10T14:06:59.019Z,46.66
2022-08-10T14:08:59.297Z,46.87
2022-08-10T14:11:08.508Z,47.13
2022-08-10T14:13:00.416Z,47.16
2022-08-10T14:14:59.550Z,47.42
2022-08-10T14:16:59.683Z,47.64
2022-08-10T14:18:59.814Z,47.93
2022-08-10T14:20:59.917Z,47.77
2022-08-10T14:23:00.114Z,48.04
2022-08-10T14:25:00.210Z,48.51
2022-08-10T14:27:00.369Z,48.46
2022-08-10T14:29:00.496Z,48.49
2022-08-10T14:31:00.866Z,48.79
2022-08-10T14:33:00.799Z,48.85
2022-08-10T14:36:20.426Z,48.62
2022-08-10T14:37:02.117Z,48.71
2022-08-10T14:39:01.141Z,48.94
2022-08-10T14:41:01.294Z,48.88
2022-08-10T14:43:01.919Z,48.74
2022-08-10T14:45:02.502Z,48.99
2022-08-10T14:47:06.482Z,49.16
2022-08-10T14:49:26.365Z,49.39
2022-08-10T14:51:02.910Z,49.60
2022-08-10T14:53:02.100Z,49.80
2022-08-10T14:55:02.230Z,49.98
2022-08-10T14:57:02.358Z,50.04
2022-08-10T14:59:06.733Z,50.22
2022-08-10T15:01:02.694Z,50.52
2022-08-10T15:03:02.815Z,50.40
2022-08-10T15:05:04.022Z,50.49
2022-08-10T15:07:03.972Z,50.49
2022-08-10T15:09:04.147Z,50.76
2022-08-10T15:11:04.366Z,50.70
2022-08-10T15:13:03.421Z,50.64
2022-08-10T15:15:03.498Z,50.73
2022-08-10T15:17:03.652Z,51.01
2022-08-10T15:19:03.748Z,51.13
2022-08-10T15:21:17.507Z,51.22
2022-08-10T15:23:05.264Z,51.54
2022-08-10T15:25:04.209Z,51.35
2022-08-10T15:27:04.337Z,51.69
2022-08-10T15:29:23.840Z,51.69
2022-08-10T15:31:05.730Z,51.79
2022-08-10T15:33:04.727Z,52.01
2022-08-10T15:35:04.928Z,51.98
2022-08-10T15:37:39.966Z,52.21
2022-08-10T15:39:11.171Z,52.53
2022-08-10T15:41:07.177Z,52.50
2022-08-10T15:43:20.161Z,52.73
2022-08-10T15:45:06.514Z,52.83
2022-08-10T15:47:05.682Z,53.13
2022-08-10T15:49:05.890Z,53.19
2022-08-10T15:51:06.290Z,53.09
2022-08-10T15:53:06.100Z,53.36
2022-08-10T15:55:44.070Z,53.60
2022-08-10T15:57:07.355Z,53.74
2022-08-10T15:59:08.345Z,53.50
2022-08-10T16:02:03.942Z,53.77
2022-08-10T16:03:07.824Z,53.87
2022-08-10T16:05:07.936Z,54.08
2022-08-10T16:07:07.067Z,54.15
2022-08-10T16:10:23.698Z,54.18
2022-08-10T16:11:08.348Z,53.94
2022-08-10T16:14:00.041Z,54.29
2022-08-10T16:15:09.095Z,54.43
2022-08-10T16:17:07.865Z,54.25
2022-08-10T16:19:13.654Z,54.67
2022-08-10T16:21:09.086Z,54.50
2022-08-10T16:23:08.190Z,54.78
2022-08-10T16:25:08.439Z,54.85
2022-08-10T16:27:08.532Z,54.82
2022-08-10T16:29:08.626Z,55.36
2022-08-10T16:31:08.753Z,54.92
2022-08-10T16:33:08.939Z,55.28
2022-08-10T16:35:09.731Z,55.14
2022-08-10T16:37:09.176Z,55.58
2022-08-10T16:39:18.010Z,55.69
2022-08-10T16:42:02.118Z,55.76
2022-08-10T16:43:10.610Z,55.76
2022-08-10T16:45:09.670Z,55.98
2022-08-10T16:47:10.016Z,56.17
2022-08-10T16:49:09.960Z,55.91
2022-08-10T16:51:10.099Z,55.94
2022-08-10T16:53:10.201Z,56.13
2022-08-10T16:55:17.129Z,56.13
2022-08-10T16:57:11.475Z,56.35
2022-08-10T16:59:10.596Z,56.24
2022-08-10T17:01:11.861Z,56.73
2022-08-10T17:03:22.906Z,56.47
2022-08-10T17:05:11.989Z,56.58
2022-08-10T17:07:11.266Z,56.85
2022-08-10T17:09:11.256Z,56.85
2022-08-10T17:11:11.413Z,57.08
2022-08-10T17:13:11.719Z,57.27
2022-08-10T17:15:11.904Z,57.47
2022-08-10T17:17:11.843Z,57.58
2022-08-10T17:19:11.935Z,57.66
2022-08-10T17:21:12.054Z,57.98
2022-08-10T17:23:12.238Z,58.06
2022-08-10T17:25:13.321Z,58.22
2022-08-10T17:28:03.924Z,58.26
2022-08-10T17:29:17.476Z,58.18
2022-08-10T17:31:39.767Z,58.46
2022-08-10T17:33:13.894Z,58.54
2022-08-10T17:35:13.216Z,58.75
2022-08-10T17:37:13.148Z,58.75
2022-08-10T17:39:13.411Z,58.83
2022-08-10T17:41:13.412Z,59.08
2022-08-10T17:43:13.678Z,59.08
2022-08-10T17:45:16.371Z,59.54
2022-08-10T17:47:14.737Z,59.70
2022-08-10T17:49:14.020Z,59.54
2022-08-10T17:51:14.111Z,59.66
2022-08-10T17:53:14.210Z,59.87
2022-08-10T17:55:14.300Z,60.09
2022-08-10T17:57:14.566Z,60.30
2022-08-10T17:59:17.548Z,60.56
2022-08-10T18:01:40.294Z,60.78
2022-08-10T18:03:25.309Z,61.09
2022-08-10T18:05:15.980Z,61.13
2022-08-10T18:07:15.116Z,61.31
2022-08-10T18:09:15.261Z,61.49
2022-08-10T18:11:15.356Z,61.85
2022-08-10T18:13:15.804Z,62.03
2022-08-10T18:15:15.696Z,62.12
2022-08-10T18:17:15.745Z,62.21
2022-08-10T18:19:15.886Z,62.44
2022-08-10T18:21:16.043Z,62.68
2022-08-10T18:23:16.093Z,62.68
2022-08-10T18:25:16.202Z,63.00
2022-08-10T18:27:16.393Z,63.15
2022-08-10T18:29:18.683Z,63.33
2022-08-10T18:31:16.517Z,63.62
2022-08-10T18:33:16.636Z,63.48
2022-08-10T18:35:17.012Z,64.01
2022-08-10T18:37:20.170Z,64.55
2022-08-10T18:39:17.029Z,64.60
2022-08-10T18:41:17.105Z,65.19
2022-08-10T18:44:05.885Z,65.35
2022-08-10T18:45:21.136Z,65.80
2022-08-10T18:47:17.490Z,66.06
2022-08-10T18:49:17.567Z,66.43
2022-08-10T18:51:17.873Z,66.58
2022-08-10T18:53:17.871Z,66.79
2022-08-10T18:55:22.889Z,67.22
2022-08-10T18:57:23.505Z,67.38
2022-08-10T18:59:18.298Z,67.60
2022-08-10T19:01:18.559Z,67.92
2022-08-10T19:03:18.592Z,68.03
2022-08-10T19:05:30.126Z,68.42
2022-08-10T19:07:19.809Z,68.59
2022-08-10T19:09:45.586Z,68.81
2022-08-10T19:11:20.117Z,69.09
2022-08-10T19:13:19.216Z,68.92
2022-08-10T19:15:19.306Z,69.38
2022-08-10T19:17:19.462Z,69.49
2022-08-10T19:19:22.476Z,69.49
2022-08-10T19:21:19.871Z,69.95
2022-08-10T19:23:19.839Z,70.30
2022-08-10T19:25:19.922Z,70.12
2022-08-10T19:27:21.016Z,69.89
2022-08-10T19:30:08.172Z,70.24
2022-08-10T19:31:21.340Z,70.77
2022-08-10T19:33:20.394Z,70.83
2022-08-10T19:35:20.596Z,70.77
2022-08-10T19:37:20.606Z,70.65
2022-08-10T19:39:20.730Z,70.71
2022-08-10T19:41:20.828Z,71.55
2022-08-10T19:43:59.028Z,70.42
2022-08-10T19:45:55.985Z,70.89
2022-08-10T19:47:22.208Z,71.37
2022-08-10T19:49:21.322Z,70.59
2022-08-10T19:51:21.420Z,71.07
2022-08-10T19:53:22.868Z,70.89
2022-08-10T19:55:21.654Z,71.37
2022-08-10T19:57:21.749Z,71.61
2022-08-10T20:00:06.269Z,71.92
2022-08-10T20:01:23.120Z,71.98
2022-08-10T20:03:22.218Z,71.37
2022-08-10T20:05:22.258Z,71.13
2022-08-10T20:07:22.419Z,71.49
2022-08-10T20:09:22.519Z,71.19
2022-08-10T20:11:44.195Z,71.49
2022-08-10T20:13:23.741Z,71.49
2022-08-10T20:15:22.901Z,71.43
2022-08-10T20:17:23.022Z,71.80
2022-08-10T20:19:23.116Z,71.61
2022-08-10T20:21:23.315Z,71.92
2022-08-10T20:23:23.331Z,71.74
2022-08-10T20:25:23.486Z,71.86
2022-08-10T20:27:59.683Z,72.04
2022-08-10T20:29:57.782Z,72.04
2022-08-10T20:31:24.963Z,72.16
2022-08-10T20:33:23.982Z,72.41
2022-08-10T20:35:24.075Z,72.04
2022-08-10T20:37:44.934Z,72.23
2022-08-10T20:39:25.369Z,72.23
2022-08-10T20:41:24.489Z,72.29
2022-08-10T20:43:24.585Z,72.29
2022-08-10T20:45:25.024Z,72.54
2022-08-10T20:47:24.823Z,72.60
2022-08-10T20:49:24.941Z,72.85
2022-08-10T20:51:25.342Z,72.72
2022-08-10T20:53:26.240Z,72.66
2022-08-10T20:55:25.342Z,72.72
2022-08-10T20:57:55.446Z,72.79
2022-08-10T20:59:33.310Z,72.60
2022-08-10T21:02:01.509Z,73.17
2022-08-10T21:03:31.957Z,72.72
2022-08-10T21:05:26.962Z,72.72
2022-08-10T21:07:44.381Z,72.66
2022-08-10T21:09:27.189Z,72.79
2022-08-10T21:11:26.296Z,72.85
2022-08-10T21:13:26.451Z,72.79
2022-08-10T21:15:26.603Z,73.04
2022-08-10T21:17:26.673Z,72.98
2022-08-10T21:19:27.849Z,72.72
2022-08-10T21:21:41.127Z,73.10
2022-08-10T21:23:30.754Z,72.91
2022-08-10T21:25:29.684Z,73.29
2022-08-10T21:27:27.672Z,72.91
2022-08-10T21:29:37.922Z,72.98
2022-08-10T21:31:28.650Z,73.04
2022-08-10T21:33:27.779Z,73.17
2022-08-10T21:35:36.633Z,72.85
2022-08-10T21:37:34.148Z,72.98
2022-08-10T21:39:42.604Z,72.91
2022-08-10T21:41:56.528Z,72.79
2022-08-10T21:43:32.073Z,72.98
2022-08-10T21:45:59.809Z,72.98
2022-08-10T21:47:42.491Z,73.36
2022-08-10T21:49:37.308Z,73.23
2022-08-10T21:52:01.540Z,73.04
2022-08-10T21:53:44.754Z,72.85
2022-08-10T21:55:56.228Z,72.91
2022-08-10T21:57:30.265Z,72.72
2022-08-10T21:59:30.387Z,72.47
2022-08-10T22:01:39.103Z,72.60
2022-08-10T22:03:39.396Z,72.47
2022-08-10T22:05:38.966Z,72.79
2022-08-10T22:07:33.329Z,72.41
2022-08-10T22:09:33.920Z,72.60
2022-08-10T22:11:31.270Z,72.47
2022-08-10T22:13:33.961Z,72.60
2022-08-10T22:16:03.886Z,72.47
2022-08-10T22:17:59.381Z,72.54
2022-08-10T22:19:31.705Z,72.35
2022-08-10T22:21:30.874Z,72.47
2022-08-10T22:23:31.971Z,72.91
2022-08-10T22:25:31.054Z,72.60
2022-08-10T22:27:46.842Z,72.54
2022-08-10T22:29:42.369Z,72.60
2022-08-10T22:31:33.151Z,72.54
2022-08-10T22:33:31.632Z,72.35
2022-08-10T22:35:31.746Z,72.60
2022-08-10T22:37:31.841Z,72.79
2022-08-10T22:40:11.291Z,72.54
2022-08-10T22:41:33.185Z,72.47
2022-08-10T22:43:35.815Z,72.66
2022-08-10T22:45:32.307Z,72.79
2022-08-10T22:47:32.537Z,72.91
2022-08-10T22:49:32.569Z,72.85
2022-08-10T22:51:32.668Z,72.60
2022-08-10T22:53:32.866Z,72.85
2022-08-10T22:55:32.961Z,72.79
2022-08-10T22:57:33.666Z,72.60
2022-08-10T22:59:33.223Z,72.41
2022-08-10T23:01:33.364Z,72.60
2022-08-10T23:03:33.611Z,72.60
2022-08-10T23:05:33.633Z,73.04
2022-08-10T23:07:33.819Z,72.47
2022-08-10T23:09:33.912Z,72.66
2022-08-10T23:11:33.989Z,72.60
2022-08-10T23:13:36.220Z,72.60
2022-08-10T23:15:34.269Z,72.41
2022-08-10T23:18:01.760Z,72.29
2022-08-10T23:19:35.492Z,72.47
2022-08-10T23:22:01.230Z,72.35
2022-08-10T23:23:35.717Z,72.60
2022-08-10T23:25:34.882Z,72.47
2022-08-10T23:27:38.999Z,72.47
2022-08-10T23:29:36.304Z,72.54
2022-08-10T23:32:01.073Z,72.91
2022-08-10T23:33:38.117Z,72.66
2022-08-10T23:36:08.833Z,72.66
2022-08-10T23:37:36.575Z,72.66
2022-08-10T23:39:35.728Z,72.79
2022-08-10T23:41:35.814Z,72.72
2022-08-10T23:44:02.475Z,72.29
2022-08-10T23:45:53.502Z,72.79
2022-08-10T23:47:37.154Z,72.72
2022-08-10T23:49:36.278Z,72.29
2022-08-10T23:51:38.888Z,72.60
2022-08-10T23:53:37.557Z,72.54
2022-08-10T23:55:49.501Z,72.79
2022-08-10T23:57:37.803Z,72.23
2022-08-10T23:59:36.947Z,72.04
